sensor_id;sensor_type;location;lat;lon;timestamp;P1;durP1;ratioP1;P2;durP2;ratioP2
22780;SDS011;11557;50.884;4.322;2024-03-23T00:53:00;12.55;;;3.22;;
22780;SDS011;11557;50.884;4.322;2024-03-23T00:55:26;8.48;;;3.10;;
22780;SDS011;11557;50.884;4.322;2024-03-23T00:57:52;8.65;;;2.95;;
22780;SDS011;11557;50.884;4.322;2024-03-23T01:00:27;7.00;;;2.33;;
22780;SDS011;11557;50.884;4.322;2024-03-23T01:02:52;9.82;;;3.25;;
22780;SDS011;11557;50.884;4.322;2024-03-23T01:05:20;9.77;;;3.00;;
22780;SDS011;11557;50.884;4.322;2024-03-23T01:07:46;7.43;;;3.13;;
22780;SDS011;11557;50.884;4.322;2024-03-23T01:10:11;10.82;;;3.85;;
22780;SDS011;11557;50.884;4.322;2024-03-23T01:12:37;8.73;;;3.53;;
22780;SDS011;11557;50.884;4.322;2024-03-23T01:15:02;8.27;;;3.05;;
22780;SDS011;11557;50.884;4.322;2024-03-23T01:17:28;8.93;;;3.58;;
22780;SDS011;11557;50.884;4.322;2024-03-23T01:19:54;8.88;;;3.22;;
22780;SDS011;11557;50.884;4.322;2024-03-23T01:22:19;7.72;;;3.25;;
22780;SDS011;11557;50.884;4.322;2024-03-23T01:24:45;9.43;;;3.70;;
22780;SDS011;11557;50.884;4.322;2024-03-23T01:27:11;12.18;;;3.20;;
22780;SDS011;11557;50.884;4.322;2024-03-23T01:29:36;6.80;;;3.20;;
22780;SDS011;11557;50.884;4.322;2024-03-23T01:32:02;10.35;;;3.28;;
22780;SDS011;11557;50.884;4.322;2024-03-23T01:34:28;9.23;;;3.80;;
22780;SDS011;11557;50.884;4.322;2024-03-23T01:36:53;8.80;;;3.03;;
22780;SDS011;11557;50.884;4.322;2024-03-23T01:39:19;8.70;;;3.90;;
22780;SDS011;11557;50.884;4.322;2024-03-23T01:41:44;8.60;;;3.78;;
22780;SDS011;11557;50.884;4.322;2024-03-23T01:44:10;9.98;;;4.00;;
22780;SDS011;11557;50.884;4.322;2024-03-23T01:46:39;4.82;;;3.22;;
22780;SDS011;11557;50.884;4.322;2024-03-23T01:49:06;7.25;;;3.97;;
22780;SDS011;11557;50.884;4.322;2024-03-23T01:51:33;6.00;;;3.92;;
22780;SDS011;11557;50.884;4.322;2024-03-23T01:54:01;12.27;;;4.55;;
22780;SDS011;11557;50.884;4.322;2024-03-23T01:56:29;10.57;;;4.30;;
22780;SDS011;11557;50.884;4.322;2024-03-23T01:59:00;12.65;;;4.60;;
22780;SDS011;11557;50.884;4.322;2024-03-23T02:01:26;10.35;;;4.57;;
22780;SDS011;11557;50.884;4.322;2024-03-23T02:03:51;6.75;;;4.15;;
22780;SDS011;11557;50.884;4.322;2024-03-23T02:06:20;11.40;;;4.60;;
22780;SDS011;11557;50.884;4.322;2024-03-23T02:08:47;12.95;;;4.53;;
22780;SDS011;11557;50.884;4.322;2024-03-23T02:11:13;9.50;;;5.00;;
22780;SDS011;11557;50.884;4.322;2024-03-23T02:13:42;12.57;;;5.50;;
22780;SDS011;11557;50.884;4.322;2024-03-23T02:16:07;13.52;;;5.43;;
22780;SDS011;11557;50.884;4.322;2024-03-23T02:18:33;12.57;;;5.10;;
22780;SDS011;11557;50.884;4.322;2024-03-23T02:20:59;13.00;;;5.20;;
22780;SDS011;11557;50.884;4.322;2024-03-23T02:23:25;11.63;;;5.53;;
22780;SDS011;11557;50.884;4.322;2024-03-23T02:25:51;17.98;;;6.18;;
22780;SDS011;11557;50.884;4.322;2024-03-23T02:28:18;12.50;;;5.47;;
22780;SDS011;11557;50.884;4.322;2024-03-23T02:30:44;11.20;;;5.82;;
22780;SDS011;11557;50.884;4.322;2024-03-23T02:33:09;13.82;;;6.57;;
22780;SDS011;11557;50.884;4.322;2024-03-23T02:35:35;20.25;;;6.57;;
22780;SDS011;11557;50.884;4.322;2024-03-23T02:38:01;14.57;;;6.55;;
22780;SDS011;11557;50.884;4.322;2024-03-23T02:40:27;13.07;;;6.15;;
22780;SDS011;11557;50.884;4.322;2024-03-23T02:42:53;21.58;;;6.90;;
22780;SDS011;11557;50.884;4.322;2024-03-23T02:45:19;13.45;;;6.35;;
22780;SDS011;11557;50.884;4.322;2024-03-23T02:47:44;15.18;;;7.30;;
22780;SDS011;11557;50.884;4.322;2024-03-23T02:50:10;19.17;;;7.05;;
22780;SDS011;11557;50.884;4.322;2024-03-23T02:52:36;16.27;;;7.18;;
22780;SDS011;11557;50.884;4.322;2024-03-23T02:55:02;17.58;;;7.80;;
22780;SDS011;11557;50.884;4.322;2024-03-23T02:57:29;17.63;;;8.13;;
22780;SDS011;11557;50.884;4.322;2024-03-23T02:59:54;17.98;;;7.60;;
22780;SDS011;11557;50.884;4.322;2024-03-23T03:02:20;21.13;;;8.05;;
22780;SDS011;11557;50.884;4.322;2024-03-23T03:04:47;17.85;;;7.05;;
22780;SDS011;11557;50.884;4.322;2024-03-23T03:07:13;18.70;;;7.40;;
22780;SDS011;11557;50.884;4.322;2024-03-23T03:09:39;16.17;;;7.53;;
22780;SDS011;11557;50.884;4.322;2024-03-23T03:12:07;18.48;;;8.40;;
22780;SDS011;11557;50.884;4.322;2024-03-23T03:14:33;20.42;;;7.82;;
22780;SDS011;11557;50.884;4.322;2024-03-23T03:16:59;21.25;;;7.88;;
22780;SDS011;11557;50.884;4.322;2024-03-23T03:19:25;18.23;;;7.78;;
22780;SDS011;11557;50.884;4.322;2024-03-23T03:21:51;20.98;;;7.57;;
22780;SDS011;11557;50.884;4.322;2024-03-23T03:24:16;17.08;;;8.13;;
22780;SDS011;11557;50.884;4.322;2024-03-23T03:26:42;18.52;;;8.35;;
22780;SDS011;11557;50.884;4.322;2024-03-23T03:29:08;17.40;;;7.72;;
22780;SDS011;11557;50.884;4.322;2024-03-23T03:31:34;16.52;;;8.38;;
22780;SDS011;11557;50.884;4.322;2024-03-23T03:34:00;20.77;;;7.75;;
22780;SDS011;11557;50.884;4.322;2024-03-23T03:36:25;18.13;;;8.27;;
22780;SDS011;11557;50.884;4.322;2024-03-23T03:38:51;18.17;;;8.27;;
22780;SDS011;11557;50.884;4.322;2024-03-23T03:41:18;28.52;;;9.50;;
22780;SDS011;11557;50.884;4.322;2024-03-23T03:43:44;16.60;;;7.57;;
22780;SDS011;11557;50.884;4.322;2024-03-23T03:46:09;20.00;;;8.27;;
22780;SDS011;11557;50.884;4.322;2024-03-23T03:48:36;20.17;;;8.95;;
22780;SDS011;11557;50.884;4.322;2024-03-23T03:51:02;19.17;;;8.60;;
22780;SDS011;11557;50.884;4.322;2024-03-23T03:53:28;22.70;;;9.50;;
22780;SDS011;11557;50.884;4.322;2024-03-23T03:55:54;20.27;;;8.82;;
22780;SDS011;11557;50.884;4.322;2024-03-23T03:58:19;22.38;;;9.32;;
22780;SDS011;11557;50.884;4.322;2024-03-23T04:00:45;26.88;;;9.23;;
22780;SDS011;11557;50.884;4.322;2024-03-23T04:03:12;24.25;;;8.57;;
22780;SDS011;11557;50.884;4.322;2024-03-23T04:05:37;24.35;;;9.45;;
22780;SDS011;11557;50.884;4.322;2024-03-23T04:08:03;21.15;;;10.68;;
22780;SDS011;11557;50.884;4.322;2024-03-23T04:10:30;25.75;;;9.93;;
22780;SDS011;11557;50.884;4.322;2024-03-23T04:12:55;22.27;;;9.05;;
22780;SDS011;11557;50.884;4.322;2024-03-23T04:15:21;16.52;;;9.10;;
22780;SDS011;11557;50.884;4.322;2024-03-23T04:17:47;20.80;;;8.52;;
22780;SDS011;11557;50.884;4.322;2024-03-23T04:20:12;25.50;;;8.82;;
22780;SDS011;11557;50.884;4.322;2024-03-23T04:22:41;28.65;;;9.13;;
22780;SDS011;11557;50.884;4.322;2024-03-23T04:25:08;23.30;;;9.15;;
22780;SDS011;11557;50.884;4.322;2024-03-23T04:27:35;20.52;;;8.57;;
22780;SDS011;11557;50.884;4.322;2024-03-23T04:30:05;16.10;;;8.48;;
22780;SDS011;11557;50.884;4.322;2024-03-23T04:32:35;23.85;;;7.95;;
22780;SDS011;11557;50.884;4.322;2024-03-23T04:35:01;19.88;;;8.50;;
22780;SDS011;11557;50.884;4.322;2024-03-23T04:37:30;21.48;;;9.00;;
22780;SDS011;11557;50.884;4.322;2024-03-23T04:39:59;16.70;;;7.40;;
22780;SDS011;11557;50.884;4.322;2024-03-23T04:42:26;17.70;;;8.13;;
22780;SDS011;11557;50.884;4.322;2024-03-23T04:44:55;23.08;;;8.35;;
22780;SDS011;11557;50.884;4.322;2024-03-23T04:47:21;19.25;;;8.05;;
22780;SDS011;11557;50.884;4.322;2024-03-23T04:49:46;14.65;;;6.90;;
22780;SDS011;11557;50.884;4.322;2024-03-23T04:52:12;19.40;;;8.15;;
22780;SDS011;11557;50.884;4.322;2024-03-23T04:54:38;14.07;;;7.32;;
22780;SDS011;11557;50.884;4.322;2024-03-23T04:57:05;19.63;;;7.65;;
22780;SDS011;11557;50.884;4.322;2024-03-23T04:59:31;14.77;;;7.55;;
22780;SDS011;11557;50.884;4.322;2024-03-23T05:01:57;19.25;;;7.47;;
22780;SDS011;11557;50.884;4.322;2024-03-23T05:04:22;15.82;;;6.40;;
22780;SDS011;11557;50.884;4.322;2024-03-23T05:06:48;14.77;;;7.22;;
22780;SDS011;11557;50.884;4.322;2024-03-23T05:09:14;18.00;;;6.68;;
22780;SDS011;11557;50.884;4.322;2024-03-23T05:11:39;14.32;;;7.00;;
22780;SDS011;11557;50.884;4.322;2024-03-23T05:14:06;14.82;;;6.43;;
22780;SDS011;11557;50.884;4.322;2024-03-23T05:16:32;14.70;;;6.45;;
22780;SDS011;11557;50.884;4.322;2024-03-23T05:18:58;18.55;;;6.60;;
22780;SDS011;11557;50.884;4.322;2024-03-23T05:21:23;18.80;;;7.35;;
22780;SDS011;11557;50.884;4.322;2024-03-23T05:23:49;12.25;;;5.68;;
22780;SDS011;11557;50.884;4.322;2024-03-23T05:26:16;14.85;;;6.10;;
22780;SDS011;11557;50.884;4.322;2024-03-23T05:28:42;19.30;;;7.10;;
22780;SDS011;11557;50.884;4.322;2024-03-23T05:31:07;12.88;;;6.47;;
22780;SDS011;11557;50.884;4.322;2024-03-23T05:33:35;13.82;;;5.97;;
22780;SDS011;11557;50.884;4.322;2024-03-23T05:36:03;12.70;;;6.38;;
22780;SDS011;11557;50.884;4.322;2024-03-23T05:38:29;17.73;;;7.15;;
22780;SDS011;11557;50.884;4.322;2024-03-23T05:40:58;15.27;;;7.10;;
22780;SDS011;11557;50.884;4.322;2024-03-23T05:43:28;20.67;;;7.05;;
22780;SDS011;11557;50.884;4.322;2024-03-23T05:45:57;17.45;;;6.35;;
22780;SDS011;11557;50.884;4.322;2024-03-23T05:48:24;20.85;;;6.88;;
22780;SDS011;11557;50.884;4.322;2024-03-23T05:50:50;19.85;;;6.63;;
22780;SDS011;11557;50.884;4.322;2024-03-23T05:53:17;16.27;;;6.07;;
22780;SDS011;11557;50.884;4.322;2024-03-23T05:55:45;15.55;;;5.50;;
22780;SDS011;11557;50.884;4.322;2024-03-23T05:58:12;12.43;;;5.45;;
22780;SDS011;11557;50.884;4.322;2024-03-23T06:00:39;14.85;;;5.60;;
22780;SDS011;11557;50.884;4.322;2024-03-23T06:03:05;12.05;;;4.82;;
22780;SDS011;11557;50.884;4.322;2024-03-23T06:05:31;17.55;;;5.38;;
22780;SDS011;11557;50.884;4.322;2024-03-23T06:07:57;11.20;;;4.18;;
22780;SDS011;11557;50.884;4.322;2024-03-23T06:10:22;13.57;;;4.38;;
22780;SDS011;11557;50.884;4.322;2024-03-23T06:12:48;12.70;;;4.10;;
22780;SDS011;11557;50.884;4.322;2024-03-23T06:15:16;12.43;;;4.60;;
22780;SDS011;11557;50.884;4.322;2024-03-23T06:17:42;13.80;;;3.80;;
22780;SDS011;11557;50.884;4.322;2024-03-23T06:20:08;11.68;;;3.60;;
22780;SDS011;11557;50.884;4.322;2024-03-23T06:22:35;17.02;;;3.70;;
22780;SDS011;11557;50.884;4.322;2024-03-23T06:25:00;14.73;;;3.70;;
22780;SDS011;11557;50.884;4.322;2024-03-23T06:27:26;13.90;;;3.20;;
22780;SDS011;11557;50.884;4.322;2024-03-23T06:29:52;10.52;;;3.50;;
22780;SDS011;11557;50.884;4.322;2024-03-23T06:32:17;13.40;;;3.42;;
22780;SDS011;11557;50.884;4.322;2024-03-23T06:34:43;8.88;;;2.45;;
22780;SDS011;11557;50.884;4.322;2024-03-23T06:37:09;7.75;;;2.03;;
22780;SDS011;11557;50.884;4.322;2024-03-23T06:39:36;11.90;;;2.45;;
22780;SDS011;11557;50.884;4.322;2024-03-23T06:42:02;10.13;;;2.38;;
22780;SDS011;11557;50.884;4.322;2024-03-23T06:44:28;15.45;;;2.78;;
22780;SDS011;11557;50.884;4.322;2024-03-23T06:46:55;18.25;;;3.17;;
22780;SDS011;11557;50.884;4.322;2024-03-23T06:49:22;9.98;;;3.05;;
22780;SDS011;11557;50.884;4.322;2024-03-23T06:51:48;10.57;;;2.80;;
22780;SDS011;11557;50.884;4.322;2024-03-23T06:54:13;14.63;;;4.68;;
22780;SDS011;11557;50.884;4.322;2024-03-23T06:56:39;8.85;;;2.65;;
22780;SDS011;11557;50.884;4.322;2024-03-23T06:59:05;7.85;;;2.08;;
22780;SDS011;11557;50.884;4.322;2024-03-23T07:01:31;14.88;;;2.45;;
22780;SDS011;11557;50.884;4.322;2024-03-23T07:03:57;11.90;;;2.00;;
22780;SDS011;11557;50.884;4.322;2024-03-23T07:06:23;9.80;;;2.83;;
22780;SDS011;11557;50.884;4.322;2024-03-23T07:08:48;6.57;;;1.98;;
22780;SDS011;11557;50.884;4.322;2024-03-23T07:11:23;10.27;;;2.80;;
22780;SDS011;11557;50.884;4.322;2024-03-23T07:13:49;7.53;;;2.78;;
22780;SDS011;11557;50.884;4.322;2024-03-23T07:16:16;7.63;;;2.17;;
22780;SDS011;11557;50.884;4.322;2024-03-23T07:18:42;8.38;;;2.58;;
22780;SDS011;11557;50.884;4.322;2024-03-23T07:21:08;13.52;;;2.28;;
22780;SDS011;11557;50.884;4.322;2024-03-23T07:23:34;5.47;;;1.52;;
22780;SDS011;11557;50.884;4.322;2024-03-23T07:26:03;3.88;;;1.70;;
22780;SDS011;11557;50.884;4.322;2024-03-23T07:28:30;8.40;;;2.20;;
22780;SDS011;11557;50.884;4.322;2024-03-23T07:31:06;6.07;;;1.80;;
22780;SDS011;11557;50.884;4.322;2024-03-23T07:33:41;5.38;;;2.30;;
22780;SDS011;11557;50.884;4.322;2024-03-23T07:36:08;7.53;;;2.08;;
22780;SDS011;11557;50.884;4.322;2024-03-23T07:38:33;11.68;;;2.13;;
22780;SDS011;11557;50.884;4.322;2024-03-23T07:41:06;11.20;;;2.33;;
22780;SDS011;11557;50.884;4.322;2024-03-23T07:43:42;6.55;;;2.60;;
22780;SDS011;11557;50.884;4.322;2024-03-23T07:46:08;10.68;;;2.55;;
22780;SDS011;11557;50.884;4.322;2024-03-23T07:48:34;10.32;;;2.38;;
22780;SDS011;11557;50.884;4.322;2024-03-23T07:53:27;10.77;;;2.97;;
22780;SDS011;11557;50.884;4.322;2024-03-23T07:55:54;11.27;;;2.90;;
22780;SDS011;11557;50.884;4.322;2024-03-23T07:58:21;10.75;;;2.53;;
22780;SDS011;11557;50.884;4.322;2024-03-23T08:00:47;10.15;;;2.53;;
22780;SDS011;11557;50.884;4.322;2024-03-23T08:03:12;11.55;;;2.70;;
22780;SDS011;11557;50.884;4.322;2024-03-23T08:05:38;13.60;;;2.70;;
22780;SDS011;11557;50.884;4.322;2024-03-23T08:08:04;13.07;;;2.25;;
22780;SDS011;11557;50.884;4.322;2024-03-23T08:10:30;9.20;;;2.33;;
22780;SDS011;11557;50.884;4.322;2024-03-23T08:12:55;12.23;;;2.22;;
22780;SDS011;11557;50.884;4.322;2024-03-23T08:15:21;9.75;;;2.30;;
22780;SDS011;11557;50.884;4.322;2024-03-23T08:17:46;9.48;;;2.05;;
22780;SDS011;11557;50.884;4.322;2024-03-23T08:20:12;9.50;;;1.92;;
22780;SDS011;11557;50.884;4.322;2024-03-23T08:22:38;15.57;;;2.63;;
22780;SDS011;11557;50.884;4.322;2024-03-23T08:25:03;12.45;;;2.42;;
22780;SDS011;11557;50.884;4.322;2024-03-23T08:27:30;8.38;;;1.88;;
22780;SDS011;11557;50.884;4.322;2024-03-23T08:29:55;11.13;;;1.98;;
22780;SDS011;11557;50.884;4.322;2024-03-23T08:32:21;11.30;;;2.55;;
22780;SDS011;11557;50.884;4.322;2024-03-23T08:34:46;11.15;;;2.40;;
22780;SDS011;11557;50.884;4.322;2024-03-23T08:37:12;9.50;;;2.00;;
22780;SDS011;11557;50.884;4.322;2024-03-23T08:39:38;6.93;;;2.05;;
22780;SDS011;11557;50.884;4.322;2024-03-23T08:42:03;10.35;;;2.08;;
22780;SDS011;11557;50.884;4.322;2024-03-23T08:44:29;9.77;;;2.15;;
22780;SDS011;11557;50.884;4.322;2024-03-23T08:46:58;8.25;;;2.47;;
22780;SDS011;11557;50.884;4.322;2024-03-23T08:49:24;2.10;;;1.30;;
22780;SDS011;11557;50.884;4.322;2024-03-23T08:51:49;10.82;;;1.98;;
22780;SDS011;11557;50.884;4.322;2024-03-23T08:54:15;8.55;;;1.98;;
22780;SDS011;11557;50.884;4.322;2024-03-23T08:56:40;4.88;;;1.77;;
22780;SDS011;11557;50.884;4.322;2024-03-23T08:59:06;6.35;;;2.53;;
22780;SDS011;11557;50.884;4.322;2024-03-23T09:01:32;11.15;;;2.20;;
22780;SDS011;11557;50.884;4.322;2024-03-23T09:03:57;8.18;;;1.65;;
22780;SDS011;11557;50.884;4.322;2024-03-23T09:06:23;15.48;;;2.35;;
22780;SDS011;11557;50.884;4.322;2024-03-23T09:08:48;8.38;;;1.73;;
22780;SDS011;11557;50.884;4.322;2024-03-23T09:11:14;9.52;;;2.00;;
22780;SDS011;11557;50.884;4.322;2024-03-23T09:13:40;5.53;;;1.45;;
22780;SDS011;11557;50.884;4.322;2024-03-23T09:16:06;4.40;;;1.55;;
22780;SDS011;11557;50.884;4.322;2024-03-23T09:18:34;12.77;;;2.33;;
22780;SDS011;11557;50.884;4.322;2024-03-23T09:21:04;7.05;;;2.22;;
22780;SDS011;11557;50.884;4.322;2024-03-23T09:23:35;5.70;;;1.25;;
22780;SDS011;11557;50.884;4.322;2024-03-23T09:26:04;3.92;;;1.88;;
22780;SDS011;11557;50.884;4.322;2024-03-23T09:28:32;8.25;;;3.25;;
22780;SDS011;11557;50.884;4.322;2024-03-23T09:33:29;9.52;;;2.45;;
22780;SDS011;11557;50.884;4.322;2024-03-23T09:35:55;8.50;;;2.10;;
22780;SDS011;11557;50.884;4.322;2024-03-23T09:38:24;7.57;;;2.13;;
22780;SDS011;11557;50.884;4.322;2024-03-23T09:40:50;10.00;;;2.20;;
22780;SDS011;11557;50.884;4.322;2024-03-23T09:43:18;6.22;;;2.00;;
22780;SDS011;11557;50.884;4.322;2024-03-23T09:45:44;3.55;;;1.88;;
22780;SDS011;11557;50.884;4.322;2024-03-23T09:48:11;6.93;;;1.88;;
22780;SDS011;11557;50.884;4.322;2024-03-23T09:50:38;4.32;;;2.15;;
22780;SDS011;11557;50.884;4.322;2024-03-23T09:53:08;9.55;;;2.30;;
22780;SDS011;11557;50.884;4.322;2024-03-23T09:55:36;10.45;;;2.33;;
22780;SDS011;11557;50.884;4.322;2024-03-23T09:58:03;6.68;;;2.35;;
22780;SDS011;11557;50.884;4.322;2024-03-23T10:00:32;6.15;;;2.40;;
22780;SDS011;11557;50.884;4.322;2024-03-23T10:02:58;4.07;;;1.50;;
22780;SDS011;11557;50.884;4.322;2024-03-23T10:05:27;9.02;;;2.10;;
22780;SDS011;11557;50.884;4.322;2024-03-23T10:07:53;6.32;;;1.65;;
22780;SDS011;11557;50.884;4.322;2024-03-23T10:10:20;6.18;;;2.10;;
22780;SDS011;11557;50.884;4.322;2024-03-23T10:12:49;8.50;;;2.25;;
22780;SDS011;11557;50.884;4.322;2024-03-23T10:15:18;9.75;;;1.98;;
22780;SDS011;11557;50.884;4.322;2024-03-23T10:17:44;6.72;;;2.15;;
22780;SDS011;11557;50.884;4.322;2024-03-23T10:20:10;7.25;;;2.13;;
22780;SDS011;11557;50.884;4.322;2024-03-23T10:22:37;7.60;;;2.40;;
22780;SDS011;11557;50.884;4.322;2024-03-23T10:25:09;3.67;;;1.30;;
22780;SDS011;11557;50.884;4.322;2024-03-23T10:27:35;7.43;;;2.05;;
22780;SDS011;11557;50.884;4.322;2024-03-23T10:30:10;7.88;;;2.30;;
22780;SDS011;11557;50.884;4.322;2024-03-23T10:32:37;6.22;;;1.98;;
22780;SDS011;11557;50.884;4.322;2024-03-23T10:37:43;5.18;;;1.85;;
22780;SDS011;11557;50.884;4.322;2024-03-23T10:40:10;7.85;;;1.80;;
22780;SDS011;11557;50.884;4.322;2024-03-23T10:42:37;8.32;;;1.50;;
22780;SDS011;11557;50.884;4.322;2024-03-23T10:45:05;4.25;;;1.92;;
22780;SDS011;11557;50.884;4.322;2024-03-23T10:47:31;6.05;;;1.58;;
22780;SDS011;11557;50.884;4.322;2024-03-23T10:49:57;7.18;;;1.58;;
22780;SDS011;11557;50.884;4.322;2024-03-23T10:52:23;4.43;;;1.33;;
22780;SDS011;11557;50.884;4.322;2024-03-23T10:54:50;4.85;;;1.08;;
22780;SDS011;11557;50.884;4.322;2024-03-23T11:00:01;6.05;;;1.27;;
22780;SDS011;11557;50.884;4.322;2024-03-23T11:02:28;8.02;;;1.40;;
22780;SDS011;11557;50.884;4.322;2024-03-23T11:04:54;2.35;;;0.90;;
22780;SDS011;11557;50.884;4.322;2024-03-23T11:09:52;10.90;;;0.90;;
22780;SDS011;11557;50.884;4.322;2024-03-23T11:14:54;6.85;;;1.05;;
22780;SDS011;11557;50.884;4.322;2024-03-23T11:17:24;5.07;;;0.98;;
22780;SDS011;11557;50.884;4.322;2024-03-23T11:20:00;5.43;;;1.23;;
22780;SDS011;11557;50.884;4.322;2024-03-23T11:22:40;3.42;;;1.10;;
22780;SDS011;11557;50.884;4.322;2024-03-23T11:25:15;6.70;;;0.75;;
22780;SDS011;11557;50.884;4.322;2024-03-23T11:27:42;6.85;;;1.00;;
22780;SDS011;11557;50.884;4.322;2024-03-23T11:30:12;2.33;;;0.68;;
22780;SDS011;11557;50.884;4.322;2024-03-23T11:32:38;5.80;;;0.77;;
22780;SDS011;11557;50.884;4.322;2024-03-23T11:35:05;2.90;;;0.88;;
22780;SDS011;11557;50.884;4.322;2024-03-23T11:37:31;6.78;;;0.95;;
22780;SDS011;11557;50.884;4.322;2024-03-23T11:39:57;4.72;;;0.93;;
22780;SDS011;11557;50.884;4.322;2024-03-23T11:42:22;4.85;;;0.90;;
22780;SDS011;11557;50.884;4.322;2024-03-23T11:44:48;3.75;;;0.77;;
22780;SDS011;11557;50.884;4.322;2024-03-23T11:47:14;5.30;;;1.20;;
22780;SDS011;11557;50.884;4.322;2024-03-23T11:49:39;5.32;;;0.80;;
22780;SDS011;11557;50.884;4.322;2024-03-23T11:52:08;2.30;;;0.68;;
22780;SDS011;11557;50.884;4.322;2024-03-23T11:54:34;4.53;;;0.90;;
22780;SDS011;11557;50.884;4.322;2024-03-23T11:57:00;4.70;;;0.88;;
22780;SDS011;11557;50.884;4.322;2024-03-23T11:59:35;5.97;;;1.08;;
22780;SDS011;11557;50.884;4.322;2024-03-23T12:02:09;4.25;;;0.60;;
22780;SDS011;11557;50.884;4.322;2024-03-23T12:04:36;4.88;;;0.80;;
22780;SDS011;11557;50.884;4.322;2024-03-23T12:07:21;6.70;;;1.27;;
22780;SDS011;11557;50.884;4.322;2024-03-23T12:10:08;6.63;;;1.60;;
22780;SDS011;11557;50.884;4.322;2024-03-23T12:12:33;4.18;;;0.90;;
22780;SDS011;11557;50.884;4.322;2024-03-23T12:15:03;1.85;;;0.40;;
22780;SDS011;11557;50.884;4.322;2024-03-23T12:17:31;5.90;;;0.35;;
22780;SDS011;11557;50.884;4.322;2024-03-23T12:19:57;3.15;;;0.70;;
22780;SDS011;11557;50.884;4.322;2024-03-23T12:22:23;6.35;;;0.50;;
22780;SDS011;11557;50.884;4.322;2024-03-23T12:24:49;1.92;;;0.43;;
22780;SDS011;11557;50.884;4.322;2024-03-23T12:27:15;2.75;;;0.55;;
22780;SDS011;11557;50.884;4.322;2024-03-23T12:29:41;1.55;;;0.50;;
22780;SDS011;11557;50.884;4.322;2024-03-23T12:32:08;3.55;;;0.75;;
22780;SDS011;11557;50.884;4.322;2024-03-23T12:34:34;3.85;;;0.90;;
22780;SDS011;11557;50.884;4.322;2024-03-23T12:37:00;4.00;;;0.90;;
22780;SDS011;11557;50.884;4.322;2024-03-23T12:39:26;2.72;;;0.60;;
22780;SDS011;11557;50.884;4.322;2024-03-23T12:41:52;3.67;;;0.90;;
22780;SDS011;11557;50.884;4.322;2024-03-23T12:44:18;4.40;;;1.00;;
22780;SDS011;11557;50.884;4.322;2024-03-23T12:46:43;4.07;;;0.90;;
22780;SDS011;11557;50.884;4.322;2024-03-23T12:49:10;5.07;;;0.68;;
22780;SDS011;11557;50.884;4.322;2024-03-23T12:51:36;8.32;;;0.95;;
22780;SDS011;11557;50.884;4.322;2024-03-23T12:54:02;7.35;;;1.02;;
22780;SDS011;11557;50.884;4.322;2024-03-23T12:56:28;4.68;;;1.15;;
22780;SDS011;11557;50.884;4.322;2024-03-23T12:58:54;8.60;;;1.15;;
22780;SDS011;11557;50.884;4.322;2024-03-23T13:01:22;5.75;;;1.25;;
22780;SDS011;11557;50.884;4.322;2024-03-23T13:03:48;7.22;;;1.05;;
22780;SDS011;11557;50.884;4.322;2024-03-23T13:06:15;5.80;;;0.90;;
22780;SDS011;11557;50.884;4.322;2024-03-23T13:08:44;4.07;;;0.70;;
22780;SDS011;11557;50.884;4.322;2024-03-23T13:11:10;3.90;;;1.25;;
22780;SDS011;11557;50.884;4.322;2024-03-23T13:13:37;4.40;;;0.90;;
22780;SDS011;11557;50.884;4.322;2024-03-23T13:16:03;6.53;;;1.33;;
22780;SDS011;11557;50.884;4.322;2024-03-23T13:18:30;3.65;;;0.63;;
22780;SDS011;11557;50.884;4.322;2024-03-23T13:20:57;6.55;;;0.63;;
22780;SDS011;11557;50.884;4.322;2024-03-23T13:23:23;5.38;;;0.80;;
22780;SDS011;11557;50.884;4.322;2024-03-23T13:25:51;9.95;;;0.90;;
22780;SDS011;11557;50.884;4.322;2024-03-23T13:28:18;6.00;;;0.90;;
22780;SDS011;11557;50.884;4.322;2024-03-23T13:30:54;3.42;;;0.50;;
22780;SDS011;11557;50.884;4.322;2024-03-23T13:33:21;9.30;;;1.15;;
22780;SDS011;11557;50.884;4.322;2024-03-23T13:35:53;5.20;;;0.90;;
22780;SDS011;11557;50.884;4.322;2024-03-23T13:38:22;4.22;;;0.80;;
22780;SDS011;11557;50.884;4.322;2024-03-23T13:40:58;6.03;;;0.90;;
22780;SDS011;11557;50.884;4.322;2024-03-23T13:43:25;2.92;;;0.80;;
22780;SDS011;11557;50.884;4.322;2024-03-23T13:45:56;4.68;;;0.98;;
22780;SDS011;11557;50.884;4.322;2024-03-23T13:48:25;2.75;;;0.77;;
22780;SDS011;11557;50.884;4.322;2024-03-23T13:50:58;2.95;;;1.00;;
22780;SDS011;11557;50.884;4.322;2024-03-23T13:53:28;6.03;;;1.15;;
22780;SDS011;11557;50.884;4.322;2024-03-23T13:55:55;10.32;;;1.40;;
22780;SDS011;11557;50.884;4.322;2024-03-23T13:58:20;5.55;;;1.10;;
22780;SDS011;11557;50.884;4.322;2024-03-23T14:00:46;5.07;;;1.00;;
22780;SDS011;11557;50.884;4.322;2024-03-23T14:03:13;4.95;;;1.08;;
22780;SDS011;11557;50.884;4.322;2024-03-23T14:05:39;5.15;;;1.27;;
22780;SDS011;11557;50.884;4.322;2024-03-23T14:08:06;5.57;;;1.42;;
22780;SDS011;11557;50.884;4.322;2024-03-23T14:10:32;7.13;;;1.27;;
22780;SDS011;11557;50.884;4.322;2024-03-23T14:12:58;7.78;;;1.73;;
22780;SDS011;11557;50.884;4.322;2024-03-23T14:15:27;6.25;;;1.63;;
22780;SDS011;11557;50.884;4.322;2024-03-23T14:17:53;7.38;;;2.70;;
22780;SDS011;11557;50.884;4.322;2024-03-23T14:20:20;8.32;;;1.67;;
22780;SDS011;11557;50.884;4.322;2024-03-23T14:22:46;6.13;;;0.85;;
22780;SDS011;11557;50.884;4.322;2024-03-23T14:25:12;6.60;;;1.15;;
22780;SDS011;11557;50.884;4.322;2024-03-23T14:27:38;4.90;;;1.38;;
22780;SDS011;11557;50.884;4.322;2024-03-23T14:30:03;6.93;;;1.00;;
22780;SDS011;11557;50.884;4.322;2024-03-23T14:32:30;2.30;;;0.70;;
22780;SDS011;11557;50.884;4.322;2024-03-23T14:35:02;3.45;;;0.77;;
22780;SDS011;11557;50.884;4.322;2024-03-23T14:37:38;4.13;;;0.75;;
22780;SDS011;11557;50.884;4.322;2024-03-23T14:40:04;8.55;;;1.13;;
22780;SDS011;11557;50.884;4.322;2024-03-23T14:42:31;5.35;;;1.00;;
22780;SDS011;11557;50.884;4.322;2024-03-23T14:44:57;5.38;;;0.98;;
22780;SDS011;11557;50.884;4.322;2024-03-23T14:47:23;7.35;;;1.42;;
22780;SDS011;11557;50.884;4.322;2024-03-23T14:49:48;7.90;;;1.10;;
22780;SDS011;11557;50.884;4.322;2024-03-23T14:52:15;4.32;;;1.35;;
22780;SDS011;11557;50.884;4.322;2024-03-23T14:54:41;4.38;;;1.17;;
22780;SDS011;11557;50.884;4.322;2024-03-23T14:57:08;8.15;;;1.70;;
22780;SDS011;11557;50.884;4.322;2024-03-23T14:59:34;4.55;;;1.42;;
22780;SDS011;11557;50.884;4.322;2024-03-23T15:02:00;10.50;;;1.35;;
22780;SDS011;11557;50.884;4.322;2024-03-23T15:04:26;7.03;;;1.75;;
22780;SDS011;11557;50.884;4.322;2024-03-23T15:06:52;8.52;;;1.27;;
22780;SDS011;11557;50.884;4.322;2024-03-23T15:09:17;6.25;;;1.40;;
22780;SDS011;11557;50.884;4.322;2024-03-23T15:11:43;8.20;;;1.40;;
22780;SDS011;11557;50.884;4.322;2024-03-23T15:14:09;7.82;;;1.40;;
22780;SDS011;11557;50.884;4.322;2024-03-23T15:16:36;5.70;;;1.40;;
22780;SDS011;11557;50.884;4.322;2024-03-23T15:19:01;6.20;;;1.40;;
22780;SDS011;11557;50.884;4.322;2024-03-23T15:21:27;4.95;;;1.42;;
22780;SDS011;11557;50.884;4.322;2024-03-23T15:23:53;5.70;;;1.25;;
22780;SDS011;11557;50.884;4.322;2024-03-23T15:26:19;7.85;;;1.20;;
22780;SDS011;11557;50.884;4.322;2024-03-23T15:28:48;4.00;;;0.85;;
22780;SDS011;11557;50.884;4.322;2024-03-23T15:31:24;6.88;;;1.05;;
22780;SDS011;11557;50.884;4.322;2024-03-23T15:33:50;6.35;;;1.15;;
22780;SDS011;11557;50.884;4.322;2024-03-23T15:36:16;6.07;;;1.00;;
22780;SDS011;11557;50.884;4.322;2024-03-23T15:38:42;3.40;;;1.05;;
22780;SDS011;11557;50.884;4.322;2024-03-23T15:41:08;4.53;;;1.20;;
22780;SDS011;11557;50.884;4.322;2024-03-23T15:43:34;4.55;;;1.13;;
22780;SDS011;11557;50.884;4.322;2024-03-23T15:46:01;3.20;;;0.70;;
22780;SDS011;11557;50.884;4.322;2024-03-23T15:48:29;3.65;;;1.23;;